Terminal Aerodrome Forecast
Issued by NWS

Home | Current Version | Previous Version | Text Only | Print | Product List | Glossary On
Versions: 1 2 3 4 5 6 7 8 9 10 11 12 13 14 15 16 17 18 19 20 21 22 23 24 25 26 27 28 29 30 31
000
FTUS41 KBOX 032330
TAFHYA
TAF
KHYA 032330Z 0400/0424 17003KT P6SM FEW250
     FM041500 12007KT P6SM BKN120
     FM041800 11011KT P6SM OVC120
     FM042100 08011KT P6SM OVC025
     FM042300 05012KT 5SM -RA BR FEW012 OVC025=

USA.gov is the U.S. government's official web portal to all federal, state and local government web resources and services.